sensor_id;sensor_type;location;lat;lon;timestamp;P1;P2;P0
65012;PMS5003;51715;39.432;-77.518;2023-11-19T00:00:32;7;7;
65012;PMS5003;51715;39.432;-77.518;2023-11-19T00:03:01;6;5;
65012;PMS5003;51715;39.432;-77.518;2023-11-19T00:05:35;8;8;
65012;PMS5003;51715;39.432;-77.518;2023-11-19T00:08:05;15;12;
65012;PMS5003;51715;39.432;-77.518;2023-11-19T00:10:35;12;9;
65012;PMS5003;51715;39.432;-77.518;2023-11-19T00:13:07;10;10;
65012;PMS5003;51715;39.432;-77.518;2023-11-19T00:15:36;22;19;
65012;PMS5003;51715;39.432;-77.518;2023-11-19T00:18:10;15;13;
65012;PMS5003;51715;39.432;-77.518;2023-11-19T00:20:40;27;24;
65012;PMS5003;51715;39.432;-77.518;2023-11-19T00:23:10;9;7;
65012;PMS5003;51715;39.432;-77.518;2023-11-19T00:25:39;11;10;
65012;PMS5003;51715;39.432;-77.518;2023-11-19T00:28:07;18;17;
65012;PMS5003;51715;39.432;-77.518;2023-11-19T00:30:35;19;17;
65012;PMS5003;51715;39.432;-77.518;2023-11-19T00:33:03;11;11;
65012;PMS5003;51715;39.432;-77.518;2023-11-19T00:35:32;8;8;
65012;PMS5003;51715;39.432;-77.518;2023-11-19T00:38:00;9;9;
65012;PMS5003;51715;39.432;-77.518;2023-11-19T00:40:29;9;9;
65012;PMS5003;51715;39.432;-77.518;2023-11-19T00:42:59;9;9;
65012;PMS5003;51715;39.432;-77.518;2023-11-19T00:45:29;10;10;
65012;PMS5003;51715;39.432;-77.518;2023-11-19T00:47:59;16;14;
65012;PMS5003;51715;39.432;-77.518;2023-11-19T00:50:28;10;9;
65012;PMS5003;51715;39.432;-77.518;2023-11-19T00:52:57;13;12;
65012;PMS5003;51715;39.432;-77.518;2023-11-19T00:55:29;13;11;
65012;PMS5003;51715;39.432;-77.518;2023-11-19T00:57:59;9;9;
65012;PMS5003;51715;39.432;-77.518;2023-11-19T01:00:28;10;10;
65012;PMS5003;51715;39.432;-77.518;2023-11-19T01:02:56;6;6;
65012;PMS5003;51715;39.432;-77.518;2023-11-19T01:05:25;4;4;
65012;PMS5003;51715;39.432;-77.518;2023-11-19T01:07:53;3;3;
65012;PMS5003;51715;39.432;-77.518;2023-11-19T01:10:23;2;2;
65012;PMS5003;51715;39.432;-77.518;2023-11-19T01:12:52;3;3;
65012;PMS5003;51715;39.432;-77.518;2023-11-19T01:15:21;2;2;
65012;PMS5003;51715;39.432;-77.518;2023-11-19T01:17:50;1;1;
65012;PMS5003;51715;39.432;-77.518;2023-11-19T01:20:19;4;4;
65012;PMS5003;51715;39.432;-77.518;2023-11-19T01:22:47;1;1;
65012;PMS5003;51715;39.432;-77.518;2023-11-19T01:25:15;1;1;
65012;PMS5003;51715;39.432;-77.518;2023-11-19T01:27:44;3;3;
65012;PMS5003;51715;39.432;-77.518;2023-11-19T01:30:15;3;3;
65012;PMS5003;51715;39.432;-77.518;2023-11-19T01:32:47;2;2;
65012;PMS5003;51715;39.432;-77.518;2023-11-19T01:35:16;4;3;
65012;PMS5003;51715;39.432;-77.518;2023-11-19T01:37:45;3;3;
65012;PMS5003;51715;39.432;-77.518;2023-11-19T01:40:14;2;2;
65012;PMS5003;51715;39.432;-77.518;2023-11-19T01:42:47;4;4;
65012;PMS5003;51715;39.432;-77.518;2023-11-19T01:45:21;2;2;
65012;PMS5003;51715;39.432;-77.518;2023-11-19T01:47:55;3;3;
65012;PMS5003;51715;39.432;-77.518;2023-11-19T01:50:26;4;4;
65012;PMS5003;51715;39.432;-77.518;2023-11-19T01:52:59;2;2;
65012;PMS5003;51715;39.432;-77.518;2023-11-19T01:55:30;3;3;
65012;PMS5003;51715;39.432;-77.518;2023-11-19T01:57:59;4;3;
65012;PMS5003;51715;39.432;-77.518;2023-11-19T02:00:31;2;2;
65012;PMS5003;51715;39.432;-77.518;2023-11-19T02:03:03;4;3;
65012;PMS5003;51715;39.432;-77.518;2023-11-19T02:05:34;4;3;
65012;PMS5003;51715;39.432;-77.518;2023-11-19T02:08:05;3;3;
65012;PMS5003;51715;39.432;-77.518;2023-11-19T02:10:34;3;3;
65012;PMS5003;51715;39.432;-77.518;2023-11-19T02:13:04;1;1;
65012;PMS5003;51715;39.432;-77.518;2023-11-19T02:15:31;4;4;
65012;PMS5003;51715;39.432;-77.518;2023-11-19T02:18:17;3;3;
65012;PMS5003;51715;39.432;-77.518;2023-11-19T02:20:46;2;2;
65012;PMS5003;51715;39.432;-77.518;2023-11-19T02:23:15;4;4;
65012;PMS5003;51715;39.432;-77.518;2023-11-19T02:25:47;2;2;
65012;PMS5003;51715;39.432;-77.518;2023-11-19T02:28:24;5;4;
65012;PMS5003;51715;39.432;-77.518;2023-11-19T02:30:53;5;5;
65012;PMS5003;51715;39.432;-77.518;2023-11-19T02:33:21;1;1;
65012;PMS5003;51715;39.432;-77.518;2023-11-19T02:35:49;4;3;
65012;PMS5003;51715;39.432;-77.518;2023-11-19T02:38:17;2;2;
65012;PMS5003;51715;39.432;-77.518;2023-11-19T02:40:46;2;2;
65012;PMS5003;51715;39.432;-77.518;2023-11-19T02:43:14;4;2;
65012;PMS5003;51715;39.432;-77.518;2023-11-19T02:45:42;4;4;
65012;PMS5003;51715;39.432;-77.518;2023-11-19T02:48:11;3;3;
65012;PMS5003;51715;39.432;-77.518;2023-11-19T02:50:39;4;4;
65012;PMS5003;51715;39.432;-77.518;2023-11-19T02:53:07;3;3;
65012;PMS5003;51715;39.432;-77.518;2023-11-19T02:55:35;1;1;
65012;PMS5003;51715;39.432;-77.518;2023-11-19T02:58:04;5;4;
65012;PMS5003;51715;39.432;-77.518;2023-11-19T03:00:31;3;3;
65012;PMS5003;51715;39.432;-77.518;2023-11-19T03:02:59;6;4;
65012;PMS5003;51715;39.432;-77.518;2023-11-19T03:05:28;1;1;
65012;PMS5003;51715;39.432;-77.518;2023-11-19T03:07:56;3;3;
65012;PMS5003;51715;39.432;-77.518;2023-11-19T03:10:24;2;2;
65012;PMS5003;51715;39.432;-77.518;2023-11-19T03:12:53;3;3;
65012;PMS5003;51715;39.432;-77.518;2023-11-19T03:15:21;4;2;
65012;PMS5003;51715;39.432;-77.518;2023-11-19T03:17:49;5;5;
65012;PMS5003;51715;39.432;-77.518;2023-11-19T03:20:17;3;3;
65012;PMS5003;51715;39.432;-77.518;2023-11-19T03:22:45;4;3;
65012;PMS5003;51715;39.432;-77.518;2023-11-19T03:25:13;4;4;
65012;PMS5003;51715;39.432;-77.518;2023-11-19T03:27:41;1;1;
65012;PMS5003;51715;39.432;-77.518;2023-11-19T03:30:09;4;4;
65012;PMS5003;51715;39.432;-77.518;2023-11-19T03:32:38;3;3;
65012;PMS5003;51715;39.432;-77.518;2023-11-19T03:35:06;4;4;
65012;PMS5003;51715;39.432;-77.518;2023-11-19T03:37:35;3;3;
65012;PMS5003;51715;39.432;-77.518;2023-11-19T03:40:03;4;4;
65012;PMS5003;51715;39.432;-77.518;2023-11-19T03:42:32;3;3;
65012;PMS5003;51715;39.432;-77.518;2023-11-19T03:45:01;3;3;
65012;PMS5003;51715;39.432;-77.518;2023-11-19T03:47:29;5;3;
65012;PMS5003;51715;39.432;-77.518;2023-11-19T03:49:58;3;2;
65012;PMS5003;51715;39.432;-77.518;2023-11-19T03:52:26;5;4;
65012;PMS5003;51715;39.432;-77.518;2023-11-19T03:54:55;5;5;
65012;PMS5003;51715;39.432;-77.518;2023-11-19T03:57:23;3;3;
65012;PMS5003;51715;39.432;-77.518;2023-11-19T03:59:51;5;5;
65012;PMS5003;51715;39.432;-77.518;2023-11-19T04:02:19;5;5;
65012;PMS5003;51715;39.432;-77.518;2023-11-19T04:04:47;4;4;
65012;PMS5003;51715;39.432;-77.518;2023-11-19T04:07:16;6;5;
65012;PMS5003;51715;39.432;-77.518;2023-11-19T04:09:43;6;6;
65012;PMS5003;51715;39.432;-77.518;2023-11-19T04:12:12;6;5;
65012;PMS5003;51715;39.432;-77.518;2023-11-19T04:14:40;4;4;
65012;PMS5003;51715;39.432;-77.518;2023-11-19T04:17:08;4;4;
65012;PMS5003;51715;39.432;-77.518;2023-11-19T04:19:35;5;3;
65012;PMS5003;51715;39.432;-77.518;2023-11-19T04:22:03;3;3;
65012;PMS5003;51715;39.432;-77.518;2023-11-19T04:24:31;5;5;
65012;PMS5003;51715;39.432;-77.518;2023-11-19T04:26:59;3;2;
65012;PMS5003;51715;39.432;-77.518;2023-11-19T04:29:27;4;3;
65012;PMS5003;51715;39.432;-77.518;2023-11-19T04:31:56;5;4;
65012;PMS5003;51715;39.432;-77.518;2023-11-19T04:34:25;1;1;
65012;PMS5003;51715;39.432;-77.518;2023-11-19T04:36:53;3;2;
65012;PMS5003;51715;39.432;-77.518;2023-11-19T04:39:21;4;4;
65012;PMS5003;51715;39.432;-77.518;2023-11-19T04:41:49;2;2;
65012;PMS5003;51715;39.432;-77.518;2023-11-19T04:44:17;5;4;
65012;PMS5003;51715;39.432;-77.518;2023-11-19T04:46:45;6;4;
65012;PMS5003;51715;39.432;-77.518;2023-11-19T04:49:14;3;3;
65012;PMS5003;51715;39.432;-77.518;2023-11-19T04:51:42;5;5;
65012;PMS5003;51715;39.432;-77.518;2023-11-19T04:54:12;6;4;
65012;PMS5003;51715;39.432;-77.518;2023-11-19T04:56:40;5;5;
65012;PMS5003;51715;39.432;-77.518;2023-11-19T04:59:13;4;4;
65012;PMS5003;51715;39.432;-77.518;2023-11-19T05:04:07;4;4;
65012;PMS5003;51715;39.432;-77.518;2023-11-19T05:06:35;4;4;
65012;PMS5003;51715;39.432;-77.518;2023-11-19T05:09:03;7;3;
65012;PMS5003;51715;39.432;-77.518;2023-11-19T05:11:31;3;3;
65012;PMS5003;51715;39.432;-77.518;2023-11-19T05:13:59;5;4;
65012;PMS5003;51715;39.432;-77.518;2023-11-19T05:16:29;5;3;
65012;PMS5003;51715;39.432;-77.518;2023-11-19T05:18:56;4;3;
65012;PMS5003;51715;39.432;-77.518;2023-11-19T05:21:24;2;2;
65012;PMS5003;51715;39.432;-77.518;2023-11-19T05:23:52;4;4;
65012;PMS5003;51715;39.432;-77.518;2023-11-19T05:26:20;4;4;
65012;PMS5003;51715;39.432;-77.518;2023-11-19T05:28:49;3;3;
65012;PMS5003;51715;39.432;-77.518;2023-11-19T05:31:18;5;4;
65012;PMS5003;51715;39.432;-77.518;2023-11-19T05:33:46;7;5;
65012;PMS5003;51715;39.432;-77.518;2023-11-19T05:36:14;3;3;
65012;PMS5003;51715;39.432;-77.518;2023-11-19T05:38:41;5;5;
65012;PMS5003;51715;39.432;-77.518;2023-11-19T05:41:10;4;3;
65012;PMS5003;51715;39.432;-77.518;2023-11-19T05:43:38;6;5;
65012;PMS5003;51715;39.432;-77.518;2023-11-19T05:46:06;3;3;
65012;PMS5003;51715;39.432;-77.518;2023-11-19T05:48:33;4;3;
65012;PMS5003;51715;39.432;-77.518;2023-11-19T05:51:01;5;3;
65012;PMS5003;51715;39.432;-77.518;2023-11-19T05:53:30;3;3;
65012;PMS5003;51715;39.432;-77.518;2023-11-19T05:55:58;4;4;
65012;PMS5003;51715;39.432;-77.518;2023-11-19T05:58:27;3;3;
65012;PMS5003;51715;39.432;-77.518;2023-11-19T06:00:55;4;3;
65012;PMS5003;51715;39.432;-77.518;2023-11-19T06:03:24;3;3;
65012;PMS5003;51715;39.432;-77.518;2023-11-19T06:05:52;7;6;
65012;PMS5003;51715;39.432;-77.518;2023-11-19T06:08:20;5;5;
65012;PMS5003;51715;39.432;-77.518;2023-11-19T06:10:49;5;5;
65012;PMS5003;51715;39.432;-77.518;2023-11-19T06:13:17;3;3;
65012;PMS5003;51715;39.432;-77.518;2023-11-19T06:15:44;3;3;
65012;PMS5003;51715;39.432;-77.518;2023-11-19T06:18:12;3;3;
65012;PMS5003;51715;39.432;-77.518;2023-11-19T06:20:40;3;3;
65012;PMS5003;51715;39.432;-77.518;2023-11-19T06:23:08;3;3;
65012;PMS5003;51715;39.432;-77.518;2023-11-19T06:25:36;4;4;
65012;PMS5003;51715;39.432;-77.518;2023-11-19T06:28:04;4;3;
65012;PMS5003;51715;39.432;-77.518;2023-11-19T06:30:33;4;4;
65012;PMS5003;51715;39.432;-77.518;2023-11-19T06:33:02;3;3;
65012;PMS5003;51715;39.432;-77.518;2023-11-19T06:35:30;4;3;
65012;PMS5003;51715;39.432;-77.518;2023-11-19T06:37:58;3;3;
65012;PMS5003;51715;39.432;-77.518;2023-11-19T06:40:26;3;3;
65012;PMS5003;51715;39.432;-77.518;2023-11-19T06:42:54;4;4;
65012;PMS5003;51715;39.432;-77.518;2023-11-19T06:45:21;4;4;
65012;PMS5003;51715;39.432;-77.518;2023-11-19T06:47:49;2;2;
65012;PMS5003;51715;39.432;-77.518;2023-11-19T06:50:17;4;4;
65012;PMS5003;51715;39.432;-77.518;2023-11-19T06:52:45;6;4;
65012;PMS5003;51715;39.432;-77.518;2023-11-19T06:55:14;3;3;
65012;PMS5003;51715;39.432;-77.518;2023-11-19T06:57:42;4;3;
65012;PMS5003;51715;39.432;-77.518;2023-11-19T07:00:11;3;3;
65012;PMS5003;51715;39.432;-77.518;2023-11-19T07:02:39;7;7;
65012;PMS5003;51715;39.432;-77.518;2023-11-19T07:05:08;2;2;
65012;PMS5003;51715;39.432;-77.518;2023-11-19T07:07:36;3;3;
65012;PMS5003;51715;39.432;-77.518;2023-11-19T07:10:04;5;5;
65012;PMS5003;51715;39.432;-77.518;2023-11-19T07:12:32;4;4;
65012;PMS5003;51715;39.432;-77.518;2023-11-19T07:15:01;3;3;
65012;PMS5003;51715;39.432;-77.518;2023-11-19T07:17:29;3;3;
65012;PMS5003;51715;39.432;-77.518;2023-11-19T07:19:57;6;5;
65012;PMS5003;51715;39.432;-77.518;2023-11-19T07:22:25;4;4;
65012;PMS5003;51715;39.432;-77.518;2023-11-19T07:24:54;5;5;
65012;PMS5003;51715;39.432;-77.518;2023-11-19T07:27:21;4;4;
65012;PMS5003;51715;39.432;-77.518;2023-11-19T07:29:50;4;4;
65012;PMS5003;51715;39.432;-77.518;2023-11-19T07:32:18;4;4;
65012;PMS5003;51715;39.432;-77.518;2023-11-19T07:34:46;5;5;
65012;PMS5003;51715;39.432;-77.518;2023-11-19T07:37:14;3;3;
65012;PMS5003;51715;39.432;-77.518;2023-11-19T07:39:41;5;5;
65012;PMS5003;51715;39.432;-77.518;2023-11-19T07:42:09;4;4;
65012;PMS5003;51715;39.432;-77.518;2023-11-19T07:44:37;4;4;
65012;PMS5003;51715;39.432;-77.518;2023-11-19T07:47:05;6;3;
65012;PMS5003;51715;39.432;-77.518;2023-11-19T07:49:33;6;6;
65012;PMS5003;51715;39.432;-77.518;2023-11-19T07:52:01;3;3;
65012;PMS5003;51715;39.432;-77.518;2023-11-19T07:54:29;5;4;
65012;PMS5003;51715;39.432;-77.518;2023-11-19T07:56:57;8;5;
65012;PMS5003;51715;39.432;-77.518;2023-11-19T07:59:25;8;7;
65012;PMS5003;51715;39.432;-77.518;2023-11-19T08:01:53;7;5;
65012;PMS5003;51715;39.432;-77.518;2023-11-19T08:04:21;5;5;
65012;PMS5003;51715;39.432;-77.518;2023-11-19T08:06:49;4;4;
65012;PMS5003;51715;39.432;-77.518;2023-11-19T08:09:17;5;5;
65012;PMS5003;51715;39.432;-77.518;2023-11-19T08:11:45;5;5;
65012;PMS5003;51715;39.432;-77.518;2023-11-19T08:14:13;7;5;
65012;PMS5003;51715;39.432;-77.518;2023-11-19T08:16:41;7;6;
65012;PMS5003;51715;39.432;-77.518;2023-11-19T08:19:08;7;6;
65012;PMS5003;51715;39.432;-77.518;2023-11-19T08:21:36;6;5;
65012;PMS5003;51715;39.432;-77.518;2023-11-19T08:24:05;1;1;
65012;PMS5003;51715;39.432;-77.518;2023-11-19T08:26:34;8;8;
65012;PMS5003;51715;39.432;-77.518;2023-11-19T08:29:02;9;8;
65012;PMS5003;51715;39.432;-77.518;2023-11-19T08:31:30;17;16;
65012;PMS5003;51715;39.432;-77.518;2023-11-19T08:33:58;14;13;
65012;PMS5003;51715;39.432;-77.518;2023-11-19T08:36:26;17;14;
65012;PMS5003;51715;39.432;-77.518;2023-11-19T08:38:54;17;17;
65012;PMS5003;51715;39.432;-77.518;2023-11-19T08:41:22;20;17;
65012;PMS5003;51715;39.432;-77.518;2023-11-19T08:43:51;20;20;
65012;PMS5003;51715;39.432;-77.518;2023-11-19T08:46:19;19;16;
65012;PMS5003;51715;39.432;-77.518;2023-11-19T08:48:47;20;18;
65012;PMS5003;51715;39.432;-77.518;2023-11-19T08:51:15;20;18;
65012;PMS5003;51715;39.432;-77.518;2023-11-19T08:53:44;17;17;
65012;PMS5003;51715;39.432;-77.518;2023-11-19T08:56:11;15;15;
65012;PMS5003;51715;39.432;-77.518;2023-11-19T08:58:39;20;20;
65012;PMS5003;51715;39.432;-77.518;2023-11-19T09:01:07;14;14;
65012;PMS5003;51715;39.432;-77.518;2023-11-19T09:03:36;19;16;
65012;PMS5003;51715;39.432;-77.518;2023-11-19T09:06:05;8;7;
65012;PMS5003;51715;39.432;-77.518;2023-11-19T09:08:33;11;10;
65012;PMS5003;51715;39.432;-77.518;2023-11-19T09:11:01;11;11;
65012;PMS5003;51715;39.432;-77.518;2023-11-19T09:13:34;9;8;
65012;PMS5003;51715;39.432;-77.518;2023-11-19T09:16:02;7;6;
65012;PMS5003;51715;39.432;-77.518;2023-11-19T09:18:31;7;6;
65012;PMS5003;51715;39.432;-77.518;2023-11-19T09:20:58;10;10;
65012;PMS5003;51715;39.432;-77.518;2023-11-19T09:23:27;10;8;
65012;PMS5003;51715;39.432;-77.518;2023-11-19T09:25:55;9;9;
65012;PMS5003;51715;39.432;-77.518;2023-11-19T09:28:24;10;8;
65012;PMS5003;51715;39.432;-77.518;2023-11-19T09:30:52;12;10;
65012;PMS5003;51715;39.432;-77.518;2023-11-19T09:33:20;10;9;
65012;PMS5003;51715;39.432;-77.518;2023-11-19T09:35:48;9;8;
65012;PMS5003;51715;39.432;-77.518;2023-11-19T09:38:16;11;10;
65012;PMS5003;51715;39.432;-77.518;2023-11-19T09:40:44;13;13;
65012;PMS5003;51715;39.432;-77.518;2023-11-19T09:43:13;15;14;
65012;PMS5003;51715;39.432;-77.518;2023-11-19T09:45:45;15;15;
65012;PMS5003;51715;39.432;-77.518;2023-11-19T09:48:16;16;13;
65012;PMS5003;51715;39.432;-77.518;2023-11-19T09:50:45;15;14;
65012;PMS5003;51715;39.432;-77.518;2023-11-19T09:53:13;15;14;
65012;PMS5003;51715;39.432;-77.518;2023-11-19T09:55:42;11;9;
65012;PMS5003;51715;39.432;-77.518;2023-11-19T09:58:11;7;7;
65012;PMS5003;51715;39.432;-77.518;2023-11-19T10:00:41;8;8;
65012;PMS5003;51715;39.432;-77.518;2023-11-19T10:03:10;8;7;
65012;PMS5003;51715;39.432;-77.518;2023-11-19T10:05:39;6;6;
65012;PMS5003;51715;39.432;-77.518;2023-11-19T10:08:07;7;7;
65012;PMS5003;51715;39.432;-77.518;2023-11-19T10:10:35;6;5;
65012;PMS5003;51715;39.432;-77.518;2023-11-19T10:13:03;6;5;
65012;PMS5003;51715;39.432;-77.518;2023-11-19T10:15:33;5;4;
65012;PMS5003;51715;39.432;-77.518;2023-11-19T10:18:03;7;5;
65012;PMS5003;51715;39.432;-77.518;2023-11-19T10:20:35;8;8;
65012;PMS5003;51715;39.432;-77.518;2023-11-19T10:23:04;7;5;
65012;PMS5003;51715;39.432;-77.518;2023-11-19T10:25:32;6;6;
65012;PMS5003;51715;39.432;-77.518;2023-11-19T10:28:01;5;5;
65012;PMS5003;51715;39.432;-77.518;2023-11-19T10:30:30;3;3;
65012;PMS5003;51715;39.432;-77.518;2023-11-19T10:33:05;5;5;
65012;PMS5003;51715;39.432;-77.518;2023-11-19T10:35:34;2;2;
65012;PMS5003;51715;39.432;-77.518;2023-11-19T10:38:13;6;4;
65012;PMS5003;51715;39.432;-77.518;2023-11-19T10:40:42;5;5;
65012;PMS5003;51715;39.432;-77.518;2023-11-19T10:43:11;4;4;
65012;PMS5003;51715;39.432;-77.518;2023-11-19T10:45:40;5;4;
65012;PMS5003;51715;39.432;-77.518;2023-11-19T10:48:08;5;5;
65012;PMS5003;51715;39.432;-77.518;2023-11-19T10:50:37;4;4;
65012;PMS5003;51715;39.432;-77.518;2023-11-19T10:53:07;5;5;
65012;PMS5003;51715;39.432;-77.518;2023-11-19T10:55:37;4;4;
65012;PMS5003;51715;39.432;-77.518;2023-11-19T10:58:05;4;4;
65012;PMS5003;51715;39.432;-77.518;2023-11-19T11:00:36;7;5;
65012;PMS5003;51715;39.432;-77.518;2023-11-19T11:03:09;8;7;
65012;PMS5003;51715;39.432;-77.518;2023-11-19T11:05:42;2;2;
65012;PMS5003;51715;39.432;-77.518;2023-11-19T11:08:13;7;4;
65012;PMS5003;51715;39.432;-77.518;2023-11-19T11:10:48;5;5;
65012;PMS5003;51715;39.432;-77.518;2023-11-19T11:13:22;5;4;
65012;PMS5003;51715;39.432;-77.518;2023-11-19T11:15:51;3;3;
65012;PMS5003;51715;39.432;-77.518;2023-11-19T11:18:20;3;3;
65012;PMS5003;51715;39.432;-77.518;2023-11-19T11:20:48;7;7;
65012;PMS5003;51715;39.432;-77.518;2023-11-19T11:23:24;6;5;
65012;PMS5003;51715;39.432;-77.518;2023-11-19T11:26:09;6;6;
65012;PMS5003;51715;39.432;-77.518;2023-11-19T11:28:54;4;4;
65012;PMS5003;51715;39.432;-77.518;2023-11-19T11:31:31;4;4;
65012;PMS5003;51715;39.432;-77.518;2023-11-19T11:34:16;5;5;
65012;PMS5003;51715;39.432;-77.518;2023-11-19T11:37:02;5;5;
65012;PMS5003;51715;39.432;-77.518;2023-11-19T11:39:38;4;4;
65012;PMS5003;51715;39.432;-77.518;2023-11-19T11:42:39;7;6;
65012;PMS5003;51715;39.432;-77.518;2023-11-19T11:45:08;5;5;
65012;PMS5003;51715;39.432;-77.518;2023-11-19T11:48:29;5;4;
65012;PMS5003;51715;39.432;-77.518;2023-11-19T11:50:58;7;6;
65012;PMS5003;51715;39.432;-77.518;2023-11-19T11:53:26;4;4;
65012;PMS5003;51715;39.432;-77.518;2023-11-19T11:55:57;4;3;
65012;PMS5003;51715;39.432;-77.518;2023-11-19T11:58:26;5;4;
65012;PMS5003;51715;39.432;-77.518;2023-11-19T12:00:57;5;4;
65012;PMS5003;51715;39.432;-77.518;2023-11-19T12:03:27;7;6;
65012;PMS5003;51715;39.432;-77.518;2023-11-19T12:05:56;5;5;
65012;PMS5003;51715;39.432;-77.518;2023-11-19T12:08:25;7;5;
65012;PMS5003;51715;39.432;-77.518;2023-11-19T12:10:56;5;5;
65012;PMS5003;51715;39.432;-77.518;2023-11-19T12:13:42;5;5;
65012;PMS5003;51715;39.432;-77.518;2023-11-19T12:16:19;5;4;
65012;PMS5003;51715;39.432;-77.518;2023-11-19T12:18:48;7;6;
65012;PMS5003;51715;39.432;-77.518;2023-11-19T12:21:29;5;5;
65012;PMS5003;51715;39.432;-77.518;2023-11-19T12:23:58;7;7;
65012;PMS5003;51715;39.432;-77.518;2023-11-19T12:26:34;4;4;
65012;PMS5003;51715;39.432;-77.518;2023-11-19T12:29:03;6;6;
65012;PMS5003;51715;39.432;-77.518;2023-11-19T12:31:31;5;5;
65012;PMS5003;51715;39.432;-77.518;2023-11-19T12:34:00;7;5;
65012;PMS5003;51715;39.432;-77.518;2023-11-19T12:36:32;5;5;
65012;PMS5003;51715;39.432;-77.518;2023-11-19T12:39:00;4;4;
65012;PMS5003;51715;39.432;-77.518;2023-11-19T12:41:28;5;5;
65012;PMS5003;51715;39.432;-77.518;2023-11-19T12:44:08;7;6;
65012;PMS5003;51715;39.432;-77.518;2023-11-19T12:46:37;4;4;
65012;PMS5003;51715;39.432;-77.518;2023-11-19T12:49:06;5;5;
65012;PMS5003;51715;39.432;-77.518;2023-11-19T12:51:34;4;4;
65012;PMS5003;51715;39.432;-77.518;2023-11-19T12:54:03;6;6;
65012;PMS5003;51715;39.432;-77.518;2023-11-19T12:56:31;6;6;
65012;PMS5003;51715;39.432;-77.518;2023-11-19T12:59:09;8;6;
65012;PMS5003;51715;39.432;-77.518;2023-11-19T13:01:38;6;6;
65012;PMS5003;51715;39.432;-77.518;2023-11-19T13:04:22;6;6;
65012;PMS5003;51715;39.432;-77.518;2023-11-19T13:06:55;8;7;
65012;PMS5003;51715;39.432;-77.518;2023-11-19T13:09:24;10;8;
65012;PMS5003;51715;39.432;-77.518;2023-11-19T13:11:55;5;5;
65012;PMS5003;51715;39.432;-77.518;2023-11-19T13:14:24;6;6;
65012;PMS5003;51715;39.432;-77.518;2023-11-19T13:17:04;4;4;
65012;PMS5003;51715;39.432;-77.518;2023-11-19T13:19:32;4;4;
65012;PMS5003;51715;39.432;-77.518;2023-11-19T13:22:00;8;7;
65012;PMS5003;51715;39.432;-77.518;2023-11-19T13:24:28;5;4;
65012;PMS5003;51715;39.432;-77.518;2023-11-19T13:26:57;5;5;
65012;PMS5003;51715;39.432;-77.518;2023-11-19T13:29:26;5;4;
65012;PMS5003;51715;39.432;-77.518;2023-11-19T13:31:54;5;3;
65012;PMS5003;51715;39.432;-77.518;2023-11-19T13:34:22;8;8;
65012;PMS5003;51715;39.432;-77.518;2023-11-19T13:36:51;5;5;
65012;PMS5003;51715;39.432;-77.518;2023-11-19T13:39:19;3;3;
65012;PMS5003;51715;39.432;-77.518;2023-11-19T13:41:48;4;4;
65012;PMS5003;51715;39.432;-77.518;2023-11-19T13:44:17;5;5;
65012;PMS5003;51715;39.432;-77.518;2023-11-19T13:46:44;5;5;
65012;PMS5003;51715;39.432;-77.518;2023-11-19T13:49:12;4;4;
65012;PMS5003;51715;39.432;-77.518;2023-11-19T13:51:41;6;6;
65012;PMS5003;51715;39.432;-77.518;2023-11-19T13:54:09;5;5;
65012;PMS5003;51715;39.432;-77.518;2023-11-19T13:56:37;7;5;
65012;PMS5003;51715;39.432;-77.518;2023-11-19T13:59:05;6;5;
65012;PMS5003;51715;39.432;-77.518;2023-11-19T14:01:33;6;4;
65012;PMS5003;51715;39.432;-77.518;2023-11-19T14:04:01;6;6;
65012;PMS5003;51715;39.432;-77.518;2023-11-19T14:06:30;8;6;
65012;PMS5003;51715;39.432;-77.518;2023-11-19T14:08:59;5;5;
65012;PMS5003;51715;39.432;-77.518;2023-11-19T14:11:27;4;4;
65012;PMS5003;51715;39.432;-77.518;2023-11-19T14:13:55;6;6;
65012;PMS5003;51715;39.432;-77.518;2023-11-19T14:16:26;9;6;
65012;PMS5003;51715;39.432;-77.518;2023-11-19T14:18:54;4;4;
65012;PMS5003;51715;39.432;-77.518;2023-11-19T14:21:21;4;4;
65012;PMS5003;51715;39.432;-77.518;2023-11-19T14:23:49;5;5;
65012;PMS5003;51715;39.432;-77.518;2023-11-19T14:26:17;6;6;
65012;PMS5003;51715;39.432;-77.518;2023-11-19T14:28:45;9;9;
65012;PMS5003;51715;39.432;-77.518;2023-11-19T14:31:13;5;5;
65012;PMS5003;51715;39.432;-77.518;2023-11-19T14:33:42;5;5;
65012;PMS5003;51715;39.432;-77.518;2023-11-19T14:36:10;5;5;
65012;PMS5003;51715;39.432;-77.518;2023-11-19T14:38:38;6;6;
65012;PMS5003;51715;39.432;-77.518;2023-11-19T14:41:07;7;6;
65012;PMS5003;51715;39.432;-77.518;2023-11-19T14:43:35;8;7;
65012;PMS5003;51715;39.432;-77.518;2023-11-19T14:46:04;7;6;
65012;PMS5003;51715;39.432;-77.518;2023-11-19T14:48:32;5;5;
65012;PMS5003;51715;39.432;-77.518;2023-11-19T14:51:00;7;7;
65012;PMS5003;51715;39.432;-77.518;2023-11-19T14:53:28;5;5;
65012;PMS5003;51715;39.432;-77.518;2023-11-19T14:55:56;6;6;
65012;PMS5003;51715;39.432;-77.518;2023-11-19T14:58:24;8;6;
65012;PMS5003;51715;39.432;-77.518;2023-11-19T15:00:53;4;4;
65012;PMS5003;51715;39.432;-77.518;2023-11-19T15:03:21;6;6;
65012;PMS5003;51715;39.432;-77.518;2023-11-19T15:05:49;7;5;
65012;PMS5003;51715;39.432;-77.518;2023-11-19T15:08:17;7;7;
65012;PMS5003;51715;39.432;-77.518;2023-11-19T15:10:45;6;6;
65012;PMS5003;51715;39.432;-77.518;2023-11-19T15:13:14;6;5;
65012;PMS5003;51715;39.432;-77.518;2023-11-19T15:15:42;6;6;
65012;PMS5003;51715;39.432;-77.518;2023-11-19T15:18:11;9;9;
65012;PMS5003;51715;39.432;-77.518;2023-11-19T15:20:39;5;5;
65012;PMS5003;51715;39.432;-77.518;2023-11-19T15:23:08;6;6;
65012;PMS5003;51715;39.432;-77.518;2023-11-19T15:25:36;7;5;
65012;PMS5003;51715;39.432;-77.518;2023-11-19T15:28:04;9;8;
65012;PMS5003;51715;39.432;-77.518;2023-11-19T15:30:33;7;7;
65012;PMS5003;51715;39.432;-77.518;2023-11-19T15:33:01;7;7;
65012;PMS5003;51715;39.432;-77.518;2023-11-19T15:35:29;7;7;
65012;PMS5003;51715;39.432;-77.518;2023-11-19T15:37:57;5;5;
65012;PMS5003;51715;39.432;-77.518;2023-11-19T15:40:25;7;7;
65012;PMS5003;51715;39.432;-77.518;2023-11-19T15:42:54;11;9;
65012;PMS5003;51715;39.432;-77.518;2023-11-19T15:45:22;8;7;
65012;PMS5003;51715;39.432;-77.518;2023-11-19T15:47:50;5;5;
65012;PMS5003;51715;39.432;-77.518;2023-11-19T15:50:19;8;7;
65012;PMS5003;51715;39.432;-77.518;2023-11-19T15:52:47;8;7;
65012;PMS5003;51715;39.432;-77.518;2023-11-19T15:55:16;5;5;
65012;PMS5003;51715;39.432;-77.518;2023-11-19T15:57:43;8;8;
65012;PMS5003;51715;39.432;-77.518;2023-11-19T16:00:11;6;6;
65012;PMS5003;51715;39.432;-77.518;2023-11-19T16:02:40;10;10;
65012;PMS5003;51715;39.432;-77.518;2023-11-19T16:05:08;10;8;
65012;PMS5003;51715;39.432;-77.518;2023-11-19T16:07:37;7;7;
65012;PMS5003;51715;39.432;-77.518;2023-11-19T16:10:05;5;5;
65012;PMS5003;51715;39.432;-77.518;2023-11-19T16:12:34;6;6;
65012;PMS5003;51715;39.432;-77.518;2023-11-19T16:15:03;9;9;
65012;PMS5003;51715;39.432;-77.518;2023-11-19T16:17:32;6;5;
65012;PMS5003;51715;39.432;-77.518;2023-11-19T16:20:00;6;5;
65012;PMS5003;51715;39.432;-77.518;2023-11-19T16:22:29;6;5;
65012;PMS5003;51715;39.432;-77.518;2023-11-19T16:24:58;9;7;
65012;PMS5003;51715;39.432;-77.518;2023-11-19T16:27:27;6;6;
65012;PMS5003;51715;39.432;-77.518;2023-11-19T16:29:55;7;7;